Terminal Aerodrome Forecast
Issued by NWS Duluth, MN

Home | Current Version | Previous Version | Text Only | Print | Product List | Glossary On
Versions: 1 2 3 4 5 6 7 8 9 10 11 12 13 14 15 16 17 18 19 20 21 22
362
FTUS43 KDLH 261732
TAFINL
TAF
KINL 261732Z 2618/2718 04014G22KT 1SM -SN BR OVC015
      TEMPO 2618/2619 1/4SM +SN
     FM262100 04012G19KT 3SM -SN BR OVC015
     FM270100 03010KT 6SM -SN OVC020
     FM270600 01008KT P6SM OVC025=

USA.gov is the U.S. government's official web portal to all federal, state and local government web resources and services.